CCA1462 ZUGY-ZBAA
Flight info
| Callsign | CCA1462 |
|---|---|
| Flight time | N/A |
| Altitude | 35100 |
| Route | K0859S1070 AVBOB1A AVBOB W586 TRN W183 HUY A581 BODUV/K0859S1100 W102 ENH/K0863S1070 W102 SOSNU/K0854S1130 W102 EMVIL W284 UPSIK W4 VADMO W56 LEBUN/K0841S1160 W56 NUDKU/K0837S1130 W56 DUGEB DUGEB4A |
| Aircraft | A320/M-SDE3FGHIRWY/LB1 |
Departure
| Time | 2026-04-12 11:16 |
|---|---|
| Airport | Guiyang Longdongbao International Airport (ZUGY) |
Arrival
| Time | N/A |
|---|---|
| Airport | Beijing Capital International Airport (ZBAA) |
| Time | Latitude | Longitude | Altitude | Speed | Heading |
|---|---|---|---|---|---|
| 2026-04-12 10:37 | 26.55253 | 106.79887 | 3739 ft | 0 kts | 281° |
| 2026-04-12 11:04 | 26.55252 | 106.79892 | 3738 ft | 3 kts | 281° |
| 2026-04-12 11:04 | 26.55246 | 106.79922 | 3739 ft | 4 kts | 284° |
| 2026-04-12 11:04 | 26.55240 | 106.79951 | 3739 ft | 4 kts | 282° |
| 2026-04-12 11:04 | 26.55236 | 106.79978 | 3739 ft | 4 kts | 253° |
| 2026-04-12 11:05 | 26.55251 | 106.79997 | 3739 ft | 4 kts | 196° |
| 2026-04-12 11:05 | 26.55276 | 106.80003 | 3739 ft | 2 kts | 191° |
| 2026-04-12 11:05 | 26.55277 | 106.80003 | 3739 ft | 0 kts | 191° |
| 2026-04-12 11:08 | 26.55276 | 106.80003 | 3711 ft | 1 kts | 191° |
| 2026-04-12 11:08 | 26.55252 | 106.80000 | 3739 ft | 8 kts | 169° |
| 2026-04-12 11:08 | 26.55221 | 106.80091 | 3739 ft | 16 kts | 101° |
| 2026-04-12 11:08 | 26.55162 | 106.80108 | 3739 ft | 10 kts | 190° |
| 2026-04-12 11:09 | 26.55069 | 106.80091 | 3739 ft | 14 kts | 184° |
| 2026-04-12 11:09 | 26.55020 | 106.80160 | 3740 ft | 11 kts | 153° |
| 2026-04-12 11:09 | 26.54941 | 106.80150 | 3740 ft | 12 kts | 193° |
| 2026-04-12 11:09 | 26.54852 | 106.80128 | 3741 ft | 15 kts | 191° |
| 2026-04-12 11:10 | 26.54749 | 106.80108 | 3741 ft | 16 kts | 189° |
| 2026-04-12 11:10 | 26.54632 | 106.80086 | 3741 ft | 18 kts | 191° |
| 2026-04-12 11:10 | 26.54506 | 106.80062 | 3741 ft | 19 kts | 189° |
| 2026-04-12 11:10 | 26.54375 | 106.80036 | 3742 ft | 20 kts | 190° |
| 2026-04-12 11:11 | 26.54236 | 106.80009 | 3742 ft | 21 kts | 190° |
| 2026-04-12 11:11 | 26.54089 | 106.79980 | 3742 ft | 22 kts | 190° |
| 2026-04-12 11:11 | 26.53936 | 106.79951 | 3742 ft | 23 kts | 190° |
| 2026-04-12 11:11 | 26.53779 | 106.79920 | 3742 ft | 23 kts | 189° |
| 2026-04-12 11:12 | 26.53616 | 106.79888 | 3743 ft | 24 kts | 189° |
| 2026-04-12 11:12 | 26.53449 | 106.79856 | 3743 ft | 25 kts | 190° |
| 2026-04-12 11:12 | 26.53277 | 106.79823 | 3744 ft | 25 kts | 189° |
| 2026-04-12 11:12 | 26.53102 | 106.79789 | 3744 ft | 26 kts | 189° |
| 2026-04-12 11:13 | 26.52923 | 106.79755 | 3744 ft | 26 kts | 190° |
| 2026-04-12 11:13 | 26.52740 | 106.79720 | 3745 ft | 27 kts | 189° |
| 2026-04-12 11:13 | 26.52553 | 106.79684 | 3745 ft | 27 kts | 190° |
| 2026-04-12 11:13 | 26.52435 | 106.79690 | 3746 ft | 12 kts | 126° |
| 2026-04-12 11:14 | 26.52417 | 106.79784 | 3746 ft | 13 kts | 101° |
| 2026-04-12 11:14 | 26.52442 | 106.79849 | 3746 ft | 10 kts | 7° |
| 2026-04-12 11:14 | 26.52460 | 106.79852 | 3745 ft | 0 kts | 9° |
| 2026-04-12 11:14 | 26.52467 | 106.79854 | 3745 ft | 2 kts | 9° |
| 2026-04-12 11:15 | 26.52484 | 106.79857 | 3745 ft | 3 kts | 9° |
| 2026-04-12 11:15 | 26.52542 | 106.79868 | 3746 ft | 25 kts | 10° |
| 2026-04-12 11:15 | 26.52954 | 106.79949 | 3747 ft | 93 kts | 9° |
| 2026-04-12 11:15 | 26.53797 | 106.80112 | 3741 ft | 147 kts | 10° |
| 2026-04-12 11:16 | 26.54936 | 106.80336 | 3899 ft | 175 kts | 12° |
| 2026-04-12 11:16 | 26.56086 | 106.80556 | 4871 ft | 165 kts | 12° |
| 2026-04-12 11:16 | 26.57217 | 106.80761 | 5651 ft | 164 kts | 14° |
| 2026-04-12 11:16 | 26.58374 | 106.80978 | 6014 ft | 173 kts | 14° |
| 2026-04-12 11:17 | 26.59599 | 106.81212 | 6327 ft | 184 kts | 13° |
| 2026-04-12 11:17 | 26.60891 | 106.81467 | 6631 ft | 195 kts | 13° |
| 2026-04-12 11:17 | 26.62276 | 106.81731 | 6873 ft | 210 kts | 11° |
| 2026-04-12 11:17 | 26.63780 | 106.82010 | 7072 ft | 230 kts | 11° |
| 2026-04-12 11:18 | 26.65440 | 106.82319 | 7269 ft | 254 kts | 13° |
| 2026-04-12 11:18 | 26.67076 | 106.83136 | 7594 ft | 265 kts | 46° |
| 2026-04-12 11:18 | 26.68006 | 106.84881 | 8093 ft | 264 kts | 83° |
| 2026-04-12 11:18 | 26.67989 | 106.86918 | 8682 ft | 265 kts | 105° |
| 2026-04-12 11:19 | 26.67546 | 106.88930 | 9312 ft | 269 kts | 111° |
| 2026-04-12 11:19 | 26.67009 | 106.90954 | 9938 ft | 275 kts | 111° |
| 2026-04-12 11:19 | 26.66495 | 106.93044 | 10547 ft | 280 kts | 109° |
| 2026-04-12 11:19 | 26.66046 | 106.95183 | 11169 ft | 286 kts | 107° |
| 2026-04-12 11:20 | 26.65654 | 106.97383 | 11789 ft | 291 kts | 105° |
| 2026-04-12 11:20 | 26.65303 | 106.99638 | 12393 ft | 297 kts | 104° |
| 2026-04-12 11:20 | 26.64976 | 107.01937 | 12992 ft | 302 kts | 103° |
| 2026-04-12 11:20 | 26.64656 | 107.04271 | 13583 ft | 306 kts | 103° |
| 2026-04-12 11:21 | 26.64336 | 107.06640 | 14138 ft | 310 kts | 102° |
| 2026-04-12 11:21 | 26.64011 | 107.09050 | 14674 ft | 315 kts | 102° |
| 2026-04-12 11:21 | 26.63683 | 107.11476 | 15207 ft | 319 kts | 101° |
| 2026-04-12 11:21 | 26.63575 | 107.13971 | 15729 ft | 326 kts | 87° |
| 2026-04-12 11:22 | 26.63994 | 107.16508 | 16005 ft | 342 kts | 71° |
| 2026-04-12 11:22 | 26.64817 | 107.19072 | 16140 ft | 360 kts | 69° |
| 2026-04-12 11:22 | 26.65405 | 107.20883 | 16223 ft | 373 kts | 69° |
| 2026-04-12 11:22 | 26.66302 | 107.23669 | 16354 ft | 389 kts | 70° |
| 2026-04-12 11:23 | 26.67228 | 107.26577 | 16482 ft | 405 kts | 70° |
| 2026-04-12 11:23 | 26.68182 | 107.29603 | 16599 ft | 420 kts | 70° |
| 2026-04-12 11:23 | 26.69169 | 107.32739 | 16745 ft | 434 kts | 70° |
| 2026-04-12 11:23 | 26.70186 | 107.35970 | 16863 ft | 448 kts | 70° |
| 2026-04-12 11:24 | 26.71227 | 107.39293 | 17070 ft | 457 kts | 70° |
| 2026-04-12 11:24 | 26.72282 | 107.42669 | 17455 ft | 462 kts | 70° |
| 2026-04-12 11:24 | 26.73351 | 107.46081 | 17887 ft | 466 kts | 69° |
| 2026-04-12 11:24 | 26.74414 | 107.49462 | 18278 ft | 469 kts | 69° |
| 2026-04-12 11:25 | 26.75502 | 107.52916 | 18627 ft | 473 kts | 69° |
| 2026-04-12 11:25 | 26.76597 | 107.56400 | 18948 ft | 477 kts | 70° |
| 2026-04-12 11:25 | 26.77786 | 107.59877 | 19256 ft | 480 kts | 64° |
| 2026-04-12 11:25 | 26.79392 | 107.63156 | 19555 ft | 481 kts | 54° |
| 2026-04-12 11:26 | 26.81358 | 107.66208 | 19848 ft | 485 kts | 51° |
| 2026-04-12 11:26 | 26.83376 | 107.69255 | 20145 ft | 489 kts | 51° |
| 2026-04-12 11:26 | 26.85407 | 107.72326 | 20433 ft | 493 kts | 51° |
| 2026-04-12 11:26 | 26.87453 | 107.75424 | 20715 ft | 497 kts | 51° |
| 2026-04-12 11:27 | 26.89512 | 107.78553 | 20984 ft | 501 kts | 50° |
| 2026-04-12 11:27 | 26.91582 | 107.81703 | 21247 ft | 504 kts | 51° |
| 2026-04-12 11:27 | 26.93667 | 107.84880 | 21510 ft | 508 kts | 51° |
| 2026-04-12 11:27 | 26.95765 | 107.88083 | 21773 ft | 512 kts | 51° |
| 2026-04-12 11:28 | 26.97879 | 107.91315 | 22013 ft | 516 kts | 51° |
| 2026-04-12 11:28 | 27.00008 | 107.94571 | 22256 ft | 519 kts | 50° |
| 2026-04-12 11:28 | 27.02149 | 107.97845 | 22515 ft | 522 kts | 51° |
| 2026-04-12 11:28 | 27.04303 | 108.01137 | 22743 ft | 525 kts | 50° |
| 2026-04-12 11:29 | 27.06471 | 108.04447 | 22964 ft | 528 kts | 50° |
| 2026-04-12 11:29 | 27.08654 | 108.07780 | 23187 ft | 531 kts | 50° |
| 2026-04-12 11:29 | 27.10844 | 108.11129 | 23396 ft | 533 kts | 50° |
| 2026-04-12 11:29 | 27.13041 | 108.14494 | 23581 ft | 536 kts | 50° |
| 2026-04-12 11:30 | 27.15238 | 108.17869 | 23848 ft | 536 kts | 50° |
| 2026-04-12 11:30 | 27.17438 | 108.21252 | 24097 ft | 536 kts | 50° |
| 2026-04-12 11:30 | 27.19635 | 108.24635 | 24363 ft | 536 kts | 50° |
| 2026-04-12 11:30 | 27.21833 | 108.28024 | 24631 ft | 537 kts | 50° |
| 2026-04-12 11:31 | 27.24031 | 108.31416 | 24919 ft | 536 kts | 50° |
| 2026-04-12 11:31 | 27.26226 | 108.34807 | 25195 ft | 536 kts | 50° |
| 2026-04-12 11:31 | 27.28420 | 108.38192 | 25456 ft | 537 kts | 50° |
| 2026-04-12 11:31 | 27.30616 | 108.41578 | 25790 ft | 535 kts | 50° |
| 2026-04-12 11:32 | 27.32811 | 108.44962 | 26137 ft | 535 kts | 50° |
| 2026-04-12 11:32 | 27.34998 | 108.48342 | 26464 ft | 535 kts | 50° |
| 2026-04-12 11:32 | 27.37187 | 108.51733 | 26785 ft | 535 kts | 50° |
| 2026-04-12 11:32 | 27.39371 | 108.55118 | 27111 ft | 535 kts | 50° |
| 2026-04-12 11:33 | 27.41559 | 108.58513 | 27443 ft | 535 kts | 50° |
| 2026-04-12 11:33 | 27.43741 | 108.61902 | 27760 ft | 535 kts | 50° |
| 2026-04-12 11:33 | 27.45920 | 108.65292 | 28076 ft | 535 kts | 50° |
| 2026-04-12 11:33 | 27.48104 | 108.68691 | 28384 ft | 535 kts | 50° |
| 2026-04-12 11:34 | 27.50292 | 108.72092 | 28679 ft | 536 kts | 50° |
| 2026-04-12 11:34 | 27.52477 | 108.75490 | 29002 ft | 536 kts | 50° |
| 2026-04-12 11:34 | 27.54669 | 108.78895 | 29350 ft | 536 kts | 50° |
| 2026-04-12 11:34 | 27.56857 | 108.82300 | 29688 ft | 537 kts | 50° |
| 2026-04-12 11:35 | 27.59047 | 108.85714 | 30014 ft | 538 kts | 50° |
| 2026-04-12 11:35 | 27.61235 | 108.89134 | 30307 ft | 538 kts | 50° |
| 2026-04-12 11:35 | 27.63421 | 108.92557 | 30640 ft | 538 kts | 50° |
| 2026-04-12 11:35 | 27.65606 | 108.95978 | 30973 ft | 536 kts | 50° |
| 2026-04-12 11:36 | 27.67786 | 108.99395 | 31319 ft | 535 kts | 50° |
| 2026-04-12 11:36 | 27.69955 | 109.02792 | 31693 ft | 533 kts | 50° |
| 2026-04-12 11:36 | 27.72124 | 109.06194 | 32018 ft | 534 kts | 50° |
| 2026-04-12 11:36 | 27.74289 | 109.09593 | 32341 ft | 533 kts | 51° |
| 2026-04-12 11:37 | 27.76455 | 109.12996 | 32682 ft | 533 kts | 51° |
| 2026-04-12 11:37 | 27.78616 | 109.16390 | 33005 ft | 532 kts | 51° |
| 2026-04-12 11:37 | 27.80777 | 109.19781 | 33329 ft | 532 kts | 51° |
| 2026-04-12 11:37 | 27.83053 | 109.23054 | 33671 ft | 527 kts | 43° |
| 2026-04-12 11:38 | 27.85694 | 109.25877 | 33971 ft | 519 kts | 32° |
| 2026-04-12 11:38 | 27.88643 | 109.28188 | 34241 ft | 510 kts | 22° |
| 2026-04-12 11:38 | 27.91791 | 109.29935 | 34504 ft | 499 kts | 13° |
| 2026-04-12 11:38 | 27.95061 | 109.31110 | 34763 ft | 488 kts | 4° |
| 2026-04-12 11:39 | 27.98374 | 109.31850 | 34956 ft | 484 kts | 1° |
| 2026-04-12 11:39 | 28.01693 | 109.32562 | 34999 ft | 489 kts | 1° |
| 2026-04-12 11:39 | 28.08470 | 109.34035 | 35003 ft | 502 kts | 2° |
| 2026-04-12 11:40 | 28.15371 | 109.35555 | 35000 ft | 506 kts | 2° |
| 2026-04-12 11:40 | 28.22287 | 109.37102 | 34999 ft | 506 kts | 2° |
| 2026-04-12 11:41 | 28.29212 | 109.38635 | 35004 ft | 507 kts | 2° |
| 2026-04-12 11:41 | 28.36152 | 109.40157 | 35004 ft | 508 kts | 2° |
| 2026-04-12 11:42 | 28.43103 | 109.41686 | 34999 ft | 509 kts | 2° |
| 2026-04-12 11:43 | 28.53354 | 109.45335 | 34999 ft | 535 kts | 24° |
| 2026-04-12 11:43 | 28.56405 | 109.47822 | 35001 ft | 545 kts | 36° |
| 2026-04-12 11:43 | 28.59052 | 109.50933 | 35000 ft | 552 kts | 48° |
| 2026-04-12 11:44 | 28.63610 | 109.57979 | 34995 ft | 548 kts | 40° |
| 2026-04-12 11:44 | 28.66505 | 109.60720 | 34990 ft | 537 kts | 27° |
| 2026-04-12 11:44 | 28.69715 | 109.62798 | 34992 ft | 526 kts | 17° |
| 2026-04-12 11:45 | 28.76541 | 109.65284 | 34992 ft | 506 kts | 359° |
| 2026-04-12 11:45 | 28.79999 | 109.65670 | 34988 ft | 492 kts | 350° |
| 2026-04-12 11:45 | 28.83393 | 109.65591 | 34986 ft | 488 kts | 348° |
| 2026-04-12 11:46 | 28.90191 | 109.65323 | 34989 ft | 489 kts | 347° |
| 2026-04-12 11:46 | 28.96997 | 109.65042 | 35002 ft | 490 kts | 347° |
| 2026-04-12 11:47 | 29.03821 | 109.64776 | 35011 ft | 490 kts | 347° |
| 2026-04-12 11:47 | 29.10645 | 109.64515 | 35016 ft | 491 kts | 347° |
| 2026-04-12 11:48 | 29.17477 | 109.64263 | 35024 ft | 491 kts | 347° |
| 2026-04-12 11:48 | 29.24309 | 109.64012 | 35025 ft | 491 kts | 347° |
| 2026-04-12 11:49 | 29.31131 | 109.63750 | 35034 ft | 491 kts | 347° |
| 2026-04-12 11:49 | 29.37952 | 109.63480 | 35040 ft | 490 kts | 347° |
| 2026-04-12 11:50 | 29.44773 | 109.63219 | 35038 ft | 491 kts | 347° |
| 2026-04-12 11:50 | 29.51592 | 109.62963 | 35048 ft | 490 kts | 347° |
| 2026-04-12 11:51 | 29.58406 | 109.62717 | 35052 ft | 490 kts | 347° |
| 2026-04-12 11:51 | 29.65221 | 109.62452 | 35052 ft | 490 kts | 347° |
| 2026-04-12 11:52 | 29.72030 | 109.62181 | 35053 ft | 489 kts | 347° |
| 2026-04-12 11:52 | 29.78842 | 109.61932 | 35045 ft | 490 kts | 347° |
| 2026-04-12 11:53 | 29.85588 | 109.61688 | 35029 ft | 489 kts | 347° |
| 2026-04-12 11:53 | 29.92388 | 109.61427 | 35024 ft | 489 kts | 347° |
| 2026-04-12 11:54 | 29.99206 | 109.61168 | 35035 ft | 490 kts | 347° |
| 2026-04-12 11:54 | 30.06019 | 109.60908 | 35039 ft | 490 kts | 347° |
| 2026-04-12 11:55 | 30.12833 | 109.60651 | 35035 ft | 489 kts | 347° |
| 2026-04-12 11:55 | 30.15429 | 109.60550 | 35033 ft | 490 kts | 347° |